createdAt,value
2017-07-05T00:00:20.502Z,9.43
2017-07-05T00:02:48.965Z,8.50
2017-07-05T00:05:17.410Z,7.60
2017-07-05T00:07:45.980Z,8.33
2017-07-05T00:10:14.399Z,7.97
2017-07-05T00:12:42.836Z,7.60
2017-07-05T00:15:11.269Z,7.10
2017-07-05T00:17:39.938Z,8.07
2017-07-05T00:20:09.143Z,8.47
2017-07-05T00:22:39.035Z,8.00
2017-07-05T00:25:07.480Z,8.77
2017-07-05T00:27:35.909Z,8.50
2017-07-05T00:30:05.103Z,7.43
2017-07-05T00:32:33.532Z,8.23
2017-07-05T00:35:01.950Z,8.53
2017-07-05T00:37:30.386Z,8.73
2017-07-05T00:39:58.809Z,8.50
2017-07-05T00:42:27.235Z,9.20
2017-07-05T00:44:55.936Z,8.80
2017-07-05T00:47:24.325Z,8.93
2017-07-05T00:49:52.767Z,8.10
2017-07-05T00:52:21.993Z,8.50
2017-07-05T00:54:51.184Z,7.27
2017-07-05T00:57:19.677Z,9.37
2017-07-05T00:59:48.124Z,9.50
2017-07-05T01:02:17.312Z,8.20
2017-07-05T01:04:45.918Z,8.37
2017-07-05T01:07:14.625Z,8.50
2017-07-05T01:09:43.132Z,8.40
2017-07-05T01:12:11.571Z,8.83
2017-07-05T01:14:40.768Z,8.07
2017-07-05T01:17:09.947Z,8.50
2017-07-05T01:19:38.388Z,9.60
2017-07-05T01:22:07.830Z,9.97
2017-07-05T01:24:36.268Z,8.90
2017-07-05T01:27:04.737Z,8.93
2017-07-05T01:29:33.163Z,9.87
2017-07-05T01:32:02.408Z,9.30
2017-07-05T01:34:31.689Z,10.03
2017-07-05T01:37:00.175Z,9.73
2017-07-05T01:39:29.373Z,8.20
2017-07-05T01:41:57.936Z,8.77
2017-07-05T01:44:26.372Z,9.00
2017-07-05T01:46:54.908Z,10.13
2017-07-05T01:49:23.604Z,9.03
2017-07-05T01:51:51.672Z,9.30
2017-07-05T01:54:20.319Z,8.87
2017-07-05T01:56:48.817Z,9.30
2017-07-05T01:59:17.243Z,8.50
2017-07-05T02:01:46.452Z,9.17
2017-07-05T02:04:14.889Z,12.10
2017-07-05T02:06:43.350Z,9.23
2017-07-05T02:09:11.783Z,13.77
2017-07-05T02:11:40.976Z,9.87
2017-07-05T02:14:10.191Z,10.63
2017-07-05T02:16:38.633Z,9.57
2017-07-05T02:19:07.322Z,10.17
2017-07-05T02:21:35.751Z,9.83
2017-07-05T02:24:04.188Z,10.47
2017-07-05T02:26:32.700Z,10.63
2017-07-05T02:29:01.903Z,14.63
2017-07-05T02:31:30.379Z,9.27
2017-07-05T02:33:59.627Z,11.37
2017-07-05T02:36:28.166Z,9.13
2017-07-05T02:38:57.352Z,9.67
2017-07-05T02:41:26.054Z,10.50
2017-07-05T02:43:55.252Z,10.03
2017-07-05T02:46:24.527Z,10.77
2017-07-05T02:48:53.356Z,9.97
2017-07-05T02:51:21.899Z,9.37
2017-07-05T02:53:50.365Z,10.17
2017-07-05T02:56:18.808Z,9.23
2017-07-05T02:58:47.257Z,9.67
2017-07-05T03:01:16.367Z,10.30
2017-07-05T03:03:45.072Z,10.67
2017-07-05T03:06:13.517Z,9.50
2017-07-05T03:08:42.253Z,10.10
2017-07-05T03:11:10.674Z,10.07
2017-07-05T03:13:39.100Z,9.77
2017-07-05T03:16:07.708Z,10.10
2017-07-05T03:18:36.138Z,9.97
2017-07-05T03:21:04.584Z,11.80
2017-07-05T03:23:33.007Z,9.33
2017-07-05T03:26:02.219Z,10.63
2017-07-05T03:28:31.487Z,10.60
2017-07-05T03:31:00.130Z,9.13
2017-07-05T03:33:28.545Z,9.63
2017-07-05T03:35:56.973Z,10.77
2017-07-05T03:38:26.175Z,8.97
2017-07-05T03:40:54.602Z,10.10
2017-07-05T03:43:23.036Z,10.30
2017-07-05T03:45:51.496Z,10.17
2017-07-05T03:48:20.811Z,10.30
2017-07-05T03:50:50.006Z,10.17
2017-07-05T03:53:19.214Z,11.23
2017-07-05T03:55:47.647Z,12.90
2017-07-05T03:58:16.184Z,10.53
2017-07-05T04:00:45.188Z,11.53
2017-07-05T04:03:14.392Z,9.73
2017-07-05T04:05:43.608Z,10.80
2017-07-05T04:08:14.194Z,10.40
2017-07-05T04:10:43.039Z,11.73
2017-07-05T04:13:11.900Z,10.93
2017-07-05T04:15:41.109Z,10.20
2017-07-05T04:18:09.922Z,10.80
2017-07-05T04:20:38.755Z,9.40
2017-07-05T04:23:07.573Z,10.60
2017-07-05T04:25:36.389Z,9.83
2017-07-05T04:28:05.231Z,9.50
2017-07-05T04:30:34.088Z,10.60
2017-07-05T04:33:03.280Z,10.80
2017-07-05T04:35:31.729Z,10.30
2017-07-05T04:38:00.569Z,10.97
2017-07-05T04:40:28.993Z,10.27
2017-07-05T04:42:57.415Z,10.23
2017-07-05T04:45:26.292Z,9.27
2017-07-05T04:47:55.934Z,9.50
2017-07-05T04:50:25.889Z,10.47
2017-07-05T04:52:54.308Z,9.30
2017-07-05T04:55:22.743Z,12.80
2017-07-05T04:57:51.602Z,10.80
2017-07-05T05:00:20.695Z,10.20
2017-07-05T05:02:50.577Z,10.30
2017-07-05T05:05:19.777Z,11.07
2017-07-05T05:07:49.165Z,10.63
2017-07-05T05:10:18.404Z,10.93
2017-07-05T05:12:46.851Z,10.90
2017-07-05T05:15:15.689Z,10.87
2017-07-05T05:17:44.509Z,11.73
2017-07-05T05:20:13.720Z,10.67
2017-07-05T05:22:42.620Z,10.77
2017-07-05T05:25:11.834Z,10.07
2017-07-05T05:27:41.402Z,9.93
2017-07-05T05:30:10.626Z,8.90
2017-07-05T05:32:39.508Z,9.90
2017-07-05T05:35:08.463Z,9.87
2017-07-05T05:37:37.333Z,9.93
2017-07-05T05:40:05.777Z,8.20
2017-07-05T05:42:34.232Z,8.37
2017-07-05T05:45:02.754Z,8.73
2017-07-05T05:47:31.598Z,9.00
2017-07-05T05:50:01.539Z,9.23
2017-07-05T05:52:30.363Z,8.60
2017-07-05T05:54:59.927Z,7.30
2017-07-05T05:57:29.133Z,7.73
2017-07-05T05:59:58.343Z,8.37
2017-07-05T06:02:27.536Z,7.47
2017-07-05T06:04:56.760Z,7.73
2017-07-05T06:07:25.211Z,8.10
2017-07-05T06:09:54.415Z,8.97
2017-07-05T06:12:23.111Z,8.37
2017-07-05T06:14:51.610Z,7.93
2017-07-05T06:17:20.051Z,8.53
2017-07-05T06:19:49.276Z,7.87
2017-07-05T06:22:19.363Z,7.07
2017-07-05T06:24:47.791Z,7.07
2017-07-05T06:27:16.284Z,7.73
2017-07-05T06:29:44.737Z,9.83
2017-07-05T06:32:14.068Z,7.17
2017-07-05T06:34:42.489Z,7.60
2017-07-05T06:37:11.026Z,7.17
2017-07-05T06:39:39.836Z,6.60
2017-07-05T06:42:08.961Z,12.47
2017-07-05T06:44:37.401Z,6.37
2017-07-05T06:47:05.920Z,8.30
2017-07-05T06:49:34.451Z,5.87
2017-07-05T06:52:02.900Z,6.97
2017-07-05T06:54:31.723Z,7.47
2017-07-05T06:57:00.205Z,6.70
2017-07-05T06:59:28.617Z,6.50
2017-07-05T07:01:57.051Z,7.13
2017-07-05T07:04:26.255Z,6.67
2017-07-05T07:06:54.700Z,7.17
2017-07-05T07:09:23.141Z,7.07
2017-07-05T07:11:51.567Z,6.53
2017-07-05T07:14:20.031Z,6.57
2017-07-05T07:16:48.453Z,6.23
2017-07-05T07:19:17.475Z,7.33
2017-07-05T07:21:45.909Z,8.17
2017-07-05T07:24:14.497Z,6.40
2017-07-05T07:26:43.640Z,7.50
2017-07-05T07:29:12.133Z,6.23
2017-07-05T07:31:40.688Z,8.03
2017-07-05T07:34:09.874Z,6.77
2017-07-05T07:36:39.180Z,7.20
2017-07-05T07:39:07.903Z,6.17
2017-07-05T07:41:36.366Z,6.00
2017-07-05T07:44:04.860Z,6.63
2017-07-05T07:46:33.291Z,6.07
2017-07-05T07:49:01.736Z,6.03
2017-07-05T07:51:30.320Z,6.37
2017-07-05T07:53:58.811Z,5.90
2017-07-05T07:56:27.262Z,5.40
2017-07-05T07:58:55.498Z,7.57
2017-07-05T08:01:23.746Z,7.00
2017-07-05T08:03:52.257Z,5.07
2017-07-05T08:06:20.809Z,5.83
2017-07-05T08:08:49.244Z,5.20
2017-07-05T08:11:18.454Z,5.33
2017-07-05T08:13:47.634Z,5.40
2017-07-05T08:16:16.826Z,4.97
2017-07-05T08:18:45.263Z,5.40
2017-07-05T08:21:13.684Z,4.53
2017-07-05T08:23:42.162Z,5.80
2017-07-05T08:26:10.738Z,5.20
2017-07-05T08:28:39.169Z,4.70
2017-07-05T08:31:07.616Z,5.60
2017-07-05T08:33:36.063Z,5.80
2017-07-05T08:36:04.716Z,5.83
2017-07-05T08:38:33.143Z,7.83
2017-07-05T08:41:01.587Z,5.57
2017-07-05T08:43:30.034Z,6.47
2017-07-05T08:45:58.648Z,5.90
2017-07-05T08:48:27.111Z,4.83
2017-07-05T08:50:56.301Z,4.40
2017-07-05T08:53:24.734Z,5.67
2017-07-05T08:55:53.186Z,5.03
2017-07-05T08:58:22.368Z,4.57
2017-07-05T09:00:51.097Z,4.27
2017-07-05T09:03:19.530Z,5.60
2017-07-05T09:05:47.964Z,4.80
2017-07-05T09:08:16.427Z,4.50
2017-07-05T09:10:44.886Z,4.00
2017-07-05T09:13:14.139Z,4.23
2017-07-05T09:15:42.783Z,4.53
2017-07-05T09:18:11.995Z,4.07
2017-07-05T09:20:40.536Z,4.70
2017-07-05T09:23:09.162Z,5.13
2017-07-05T09:25:38.356Z,5.17
2017-07-05T09:28:07.548Z,4.90
2017-07-05T09:30:36.244Z,4.70
2017-07-05T09:33:05.431Z,4.00
2017-07-05T09:35:34.627Z,4.13
2017-07-05T09:38:03.848Z,4.20
2017-07-05T09:40:32.387Z,5.07
2017-07-05T09:43:00.944Z,4.70
2017-07-05T09:45:29.389Z,4.30
2017-07-05T09:47:58.068Z,4.23
2017-07-05T09:50:27.267Z,4.33
2017-07-05T09:52:56.517Z,5.83
2017-07-05T09:55:25.767Z,5.87
2017-07-05T09:57:54.940Z,7.17
2017-07-05T10:00:23.373Z,6.00
2017-07-05T10:02:51.843Z,6.33
2017-07-05T10:05:20.534Z,5.53
2017-07-05T10:07:48.967Z,7.20
2017-07-05T10:10:17.414Z,5.60
2017-07-05T10:12:45.853Z,4.63
2017-07-05T10:15:14.361Z,6.23
2017-07-05T10:17:42.780Z,5.80
2017-07-05T10:20:11.194Z,5.10
2017-07-05T10:22:39.919Z,4.80
2017-07-05T10:25:08.447Z,4.90
2017-07-05T10:27:36.919Z,5.20
2017-07-05T10:30:05.349Z,6.87
2017-07-05T10:32:33.868Z,5.80
2017-07-05T10:35:02.300Z,5.00
2017-07-05T10:37:31.520Z,6.50
2017-07-05T10:39:59.960Z,5.83
2017-07-05T10:42:28.369Z,4.37
2017-07-05T10:44:57.680Z,5.00
2017-07-05T10:47:26.099Z,4.60
2017-07-05T10:49:54.600Z,4.70
2017-07-05T10:52:23.027Z,5.87
2017-07-05T10:54:51.460Z,5.30
2017-07-05T10:57:19.975Z,5.00
2017-07-05T10:59:49.243Z,4.77
2017-07-05T11:02:17.822Z,4.73
2017-07-05T11:04:46.261Z,5.80
2017-07-05T11:07:14.687Z,6.77
2017-07-05T11:09:43.252Z,5.30
2017-07-05T11:12:11.684Z,7.77
2017-07-05T11:14:40.110Z,5.10
2017-07-05T11:17:08.564Z,4.90
2017-07-05T11:19:37.000Z,4.70
2017-07-05T11:22:05.427Z,4.67
2017-07-05T11:24:33.865Z,4.70
2017-07-05T11:27:02.325Z,6.93
2017-07-05T11:29:30.830Z,6.53
2017-07-05T11:31:59.332Z,4.57
2017-07-05T11:34:28.668Z,4.50
2017-07-05T11:36:57.192Z,5.97
2017-07-05T11:39:25.633Z,4.23
2017-07-05T11:41:54.062Z,5.40
2017-07-05T11:44:22.809Z,4.60
2017-07-05T11:46:51.255Z,8.03
2017-07-05T11:49:20.483Z,4.83
2017-07-05T11:51:49.022Z,6.27
2017-07-05T11:54:17.464Z,4.90
2017-07-05T11:56:45.952Z,4.43
2017-07-05T11:59:14.401Z,4.57
2017-07-05T12:01:43.584Z,4.10
2017-07-05T12:04:12.808Z,4.70
2017-07-05T12:06:41.534Z,4.70
2017-07-05T12:09:09.983Z,5.00
2017-07-05T12:11:38.468Z,4.77
2017-07-05T12:14:06.890Z,5.13
2017-07-05T12:16:35.335Z,6.90
2017-07-05T12:19:04.047Z,4.93
2017-07-05T12:21:32.491Z,4.73
2017-07-05T12:24:01.029Z,5.20
2017-07-05T12:26:29.476Z,4.40
2017-07-05T12:28:59.073Z,4.03
2017-07-05T12:31:27.512Z,3.70
2017-07-05T12:33:57.492Z,4.50
2017-07-05T12:36:25.923Z,5.03
2017-07-05T12:38:55.153Z,4.40
2017-07-05T12:41:23.010Z,4.40
2017-07-05T12:43:51.709Z,4.57
2017-07-05T12:46:20.136Z,4.60
2017-07-05T12:48:48.690Z,4.00
2017-07-05T12:51:17.142Z,4.13
2017-07-05T12:53:45.575Z,4.10
2017-07-05T12:56:14.020Z,3.53
2017-07-05T12:58:42.452Z,3.40
2017-07-05T13:01:10.576Z,3.93
2017-07-05T13:03:39.136Z,3.80
2017-07-05T13:06:08.332Z,3.70
2017-07-05T13:08:37.559Z,4.13
2017-07-05T13:11:06.289Z,3.63
2017-07-05T13:13:34.729Z,4.23
2017-07-05T13:16:03.411Z,4.03
2017-07-05T13:18:31.856Z,4.00
2017-07-05T13:21:01.067Z,3.83
2017-07-05T13:23:30.258Z,4.53
2017-07-05T13:25:59.483Z,4.17
2017-07-05T13:28:27.908Z,3.63
2017-07-05T13:30:56.380Z,4.87
2017-07-05T13:33:24.800Z,3.83
2017-07-05T13:35:54.021Z,4.47
2017-07-05T13:38:23.224Z,3.90
2017-07-05T13:40:51.644Z,3.50
2017-07-05T13:43:20.082Z,3.93
2017-07-05T13:45:48.600Z,4.40
2017-07-05T13:48:17.093Z,4.23
2017-07-05T13:50:45.588Z,4.17
2017-07-05T13:53:14.135Z,4.03
2017-07-05T13:55:42.575Z,4.20
2017-07-05T13:58:11.775Z,5.07
2017-07-05T14:00:41.264Z,3.53
2017-07-05T14:03:09.700Z,3.50
2017-07-05T14:05:38.148Z,3.60
2017-07-05T14:08:07.561Z,4.70
2017-07-05T14:10:36.895Z,4.27
2017-07-05T14:13:05.312Z,3.30
2017-07-05T14:15:33.758Z,6.20
2017-07-05T14:18:02.187Z,3.07
2017-07-05T14:20:30.632Z,3.03
2017-07-05T14:22:59.070Z,2.90
2017-07-05T14:25:28.283Z,3.97
2017-07-05T14:27:56.731Z,5.20
2017-07-05T14:30:25.184Z,3.70
2017-07-05T14:32:54.040Z,3.43
2017-07-05T14:35:22.472Z,3.27
2017-07-05T14:37:51.098Z,3.13
2017-07-05T14:40:19.688Z,9.43
2017-07-05T14:42:48.115Z,3.10
2017-07-05T14:45:16.567Z,2.73
2017-07-05T14:47:44.652Z,3.37
2017-07-05T14:50:13.284Z,3.43
2017-07-05T14:52:42.483Z,3.17
2017-07-05T14:55:11.676Z,3.27
2017-07-05T14:57:40.131Z,4.87
2017-07-05T15:00:08.380Z,2.97
2017-07-05T15:02:37.116Z,3.03
2017-07-05T15:05:05.727Z,3.87
2017-07-05T15:07:34.177Z,2.87
2017-07-05T15:10:02.635Z,3.20
2017-07-05T15:12:31.076Z,2.20
2017-07-05T15:15:00.292Z,2.50
2017-07-05T15:17:28.772Z,3.07
2017-07-05T15:19:57.215Z,12.63
2017-07-05T15:22:25.715Z,6.67
2017-07-05T15:24:54.917Z,8.87
2017-07-05T15:27:24.111Z,5.63
2017-07-05T15:29:53.316Z,3.10
2017-07-05T15:32:21.744Z,3.53
2017-07-05T15:34:50.185Z,3.23
2017-07-05T15:37:18.884Z,3.20
2017-07-05T15:39:47.371Z,4.70
2017-07-05T15:42:15.800Z,6.93
2017-07-05T15:44:44.264Z,2.87
2017-07-05T15:47:12.689Z,3.67
2017-07-05T15:49:41.875Z,4.37
2017-07-05T15:52:10.331Z,2.77
2017-07-05T15:54:38.766Z,3.40
2017-07-05T15:57:07.955Z,3.20
2017-07-05T15:59:36.408Z,7.20
2017-07-05T16:02:04.836Z,10.87
2017-07-05T16:04:33.476Z,3.10
2017-07-05T16:07:01.901Z,4.40
2017-07-05T16:09:30.380Z,3.60
2017-07-05T16:11:58.811Z,3.17
2017-07-05T16:14:26.544Z,2.93
2017-07-05T16:16:54.983Z,3.97
2017-07-05T16:19:23.451Z,3.87
2017-07-05T16:21:51.912Z,2.60
2017-07-05T16:24:20.336Z,2.40
2017-07-05T16:26:48.916Z,3.00
2017-07-05T16:29:17.352Z,2.97
2017-07-05T16:31:46.292Z,3.50
2017-07-05T16:34:15.203Z,3.53
2017-07-05T16:36:44.418Z,3.40
2017-07-05T16:39:12.856Z,3.60
2017-07-05T16:41:41.286Z,3.53
2017-07-05T16:44:10.133Z,4.17
2017-07-05T16:46:39.232Z,6.17
2017-07-05T16:49:08.452Z,3.97
2017-07-05T16:51:37.686Z,3.20
2017-07-05T16:54:06.894Z,4.97
2017-07-05T16:56:36.020Z,3.17
2017-07-05T16:59:05.527Z,3.80
2017-07-05T17:01:34.354Z,3.63
2017-07-05T17:04:03.171Z,3.90
2017-07-05T17:06:32.387Z,3.13
2017-07-05T17:09:01.373Z,3.40
2017-07-05T17:11:30.189Z,3.60
2017-07-05T17:13:59.398Z,3.50
2017-07-05T17:16:28.273Z,4.27
2017-07-05T17:18:56.697Z,4.07
2017-07-05T17:21:25.911Z,3.83
2017-07-05T17:23:55.152Z,3.60
2017-07-05T17:26:24.356Z,3.50
2017-07-05T17:28:53.585Z,3.63
2017-07-05T17:31:22.420Z,5.53
2017-07-05T17:33:51.264Z,3.50
2017-07-05T17:36:19.758Z,3.80
2017-07-05T17:38:49.037Z,3.40
2017-07-05T17:41:18.241Z,3.17
2017-07-05T17:43:47.442Z,3.60
2017-07-05T17:46:16.289Z,3.50
2017-07-05T17:48:45.511Z,9.63
2017-07-05T17:51:14.370Z,4.37
2017-07-05T17:53:43.245Z,3.33
2017-07-05T17:56:12.451Z,3.27
2017-07-05T17:58:41.295Z,3.57
2017-07-05T18:01:10.127Z,3.63
2017-07-05T18:03:38.583Z,3.40
2017-07-05T18:06:07.067Z,3.30
2017-07-05T18:08:35.493Z,3.27
2017-07-05T18:11:04.335Z,3.70
2017-07-05T18:13:33.177Z,3.60
2017-07-05T18:16:02.383Z,3.40
2017-07-05T18:18:31.309Z,3.90
2017-07-05T18:21:00.163Z,3.67
2017-07-05T18:23:28.720Z,3.77
2017-07-05T18:25:57.192Z,3.90
2017-07-05T18:28:26.289Z,3.87
2017-07-05T18:30:55.465Z,3.80
2017-07-05T18:33:23.988Z,5.90
2017-07-05T18:35:52.812Z,4.33
2017-07-05T18:38:22.047Z,5.50
2017-07-05T18:40:51.265Z,4.10
2017-07-05T18:43:20.452Z,4.37
2017-07-05T18:45:49.392Z,4.90
2017-07-05T18:48:18.238Z,3.60
2017-07-05T18:50:47.427Z,4.57
2017-07-05T18:53:16.304Z,3.97
2017-07-05T18:55:45.497Z,4.97
2017-07-05T18:58:14.353Z,4.97
2017-07-05T19:00:43.196Z,3.93
2017-07-05T19:03:12.703Z,4.10
2017-07-05T19:05:41.532Z,4.57
2017-07-05T19:08:10.356Z,4.73
2017-07-05T19:10:39.655Z,6.93
2017-07-05T19:13:08.852Z,4.20
2017-07-05T19:15:38.142Z,4.30
2017-07-05T19:18:07.352Z,4.07
2017-07-05T19:20:36.545Z,4.27
2017-07-05T19:23:05.794Z,3.97
2017-07-05T19:25:34.628Z,3.90
2017-07-05T19:28:03.848Z,4.40
2017-07-05T19:30:32.685Z,8.67
2017-07-05T19:33:01.919Z,4.93
2017-07-05T19:35:31.148Z,4.57
2017-07-05T19:38:00.342Z,4.33
2017-07-05T19:40:29.559Z,5.57
2017-07-05T19:42:58.772Z,9.10
2017-07-05T19:45:27.600Z,4.83
2017-07-05T19:47:56.831Z,5.77
2017-07-05T19:50:25.644Z,6.37
2017-07-05T19:52:54.492Z,8.23
2017-07-05T19:55:23.692Z,4.40
2017-07-05T19:57:52.892Z,5.30
2017-07-05T20:00:22.149Z,6.07
2017-07-05T20:02:51.396Z,5.97
2017-07-05T20:05:20.597Z,11.03
2017-07-05T20:07:49.899Z,5.97
2017-07-05T20:10:19.110Z,8.00
2017-07-05T20:12:48.322Z,9.20
2017-07-05T20:15:17.533Z,5.83
2017-07-05T20:17:46.749Z,8.17
2017-07-05T20:20:15.221Z,7.20
2017-07-05T20:22:43.646Z,8.33
2017-07-05T20:25:12.924Z,6.70
2017-07-05T20:27:41.350Z,5.50
2017-07-05T20:30:10.005Z,5.67
2017-07-05T20:32:38.435Z,5.23
2017-07-05T20:35:07.652Z,4.80
2017-07-05T20:37:36.850Z,5.07
2017-07-05T20:40:05.291Z,5.77
2017-07-05T20:42:33.755Z,5.13
2017-07-05T20:45:02.180Z,4.80
2017-07-05T20:47:31.592Z,5.70
2017-07-05T20:50:00.036Z,6.33
2017-07-05T20:52:28.487Z,5.87
2017-07-05T20:54:56.952Z,5.27
2017-07-05T20:57:25.399Z,7.93
2017-07-05T20:59:54.620Z,5.50
2017-07-05T21:02:23.045Z,6.00
2017-07-05T21:04:51.493Z,5.13
2017-07-05T21:07:19.921Z,8.83
2017-07-05T21:09:48.357Z,7.63
2017-07-05T21:12:16.811Z,4.63
2017-07-05T21:14:46.055Z,4.60
2017-07-05T21:17:14.506Z,4.97
2017-07-05T21:19:42.949Z,5.10
2017-07-05T21:22:11.466Z,5.60
2017-07-05T21:24:40.675Z,5.80
2017-07-05T21:27:09.122Z,5.63
2017-07-05T21:29:37.571Z,5.20
2017-07-05T21:32:06.055Z,5.10
2017-07-05T21:34:34.497Z,5.10
2017-07-05T21:37:02.931Z,5.97
2017-07-05T21:39:31.393Z,5.77
2017-07-05T21:41:59.857Z,4.73
2017-07-05T21:44:28.289Z,5.03
2017-07-05T21:46:57.024Z,5.27
2017-07-05T21:49:25.455Z,6.83
2017-07-05T21:51:53.888Z,4.60
2017-07-05T21:54:22.001Z,5.17
2017-07-05T21:56:50.707Z,5.80
2017-07-05T21:59:19.128Z,5.30
2017-07-05T22:01:47.644Z,6.93
2017-07-05T22:04:16.115Z,5.10
2017-07-05T22:06:45.588Z,5.10
2017-07-05T22:09:14.022Z,5.53
2017-07-05T22:11:42.701Z,5.33
2017-07-05T22:14:11.177Z,5.43
2017-07-05T22:16:39.587Z,5.20
2017-07-05T22:19:08.023Z,5.80
2017-07-05T22:21:36.488Z,5.20
2017-07-05T22:24:04.911Z,5.10
2017-07-05T22:26:33.409Z,5.40
2017-07-05T22:29:01.852Z,5.67
2017-07-05T22:31:30.290Z,5.20
2017-07-05T22:33:59.483Z,9.73
2017-07-05T22:36:28.224Z,6.30
2017-07-05T22:38:56.672Z,6.23
2017-07-05T22:41:25.102Z,5.73
2017-07-05T22:43:53.783Z,6.10
2017-07-05T22:46:22.203Z,5.87
2017-07-05T22:48:51.404Z,5.50
2017-07-05T22:51:20.623Z,6.63
2017-07-05T22:53:49.060Z,6.00
2017-07-05T22:56:17.495Z,6.57
2017-07-05T22:58:45.924Z,6.23
2017-07-05T23:01:14.099Z,6.03
2017-07-05T23:03:42.808Z,8.07
2017-07-05T23:06:12.016Z,6.50
2017-07-05T23:08:41.332Z,6.10
2017-07-05T23:11:09.763Z,6.40
2017-07-05T23:13:38.179Z,6.50
2017-07-05T23:16:07.387Z,5.93
2017-07-05T23:18:36.574Z,6.50
2017-07-05T23:21:05.860Z,6.40
2017-07-05T23:23:34.411Z,5.90
2017-07-05T23:26:02.862Z,6.23
2017-07-05T23:28:31.299Z,5.73
2017-07-05T23:30:59.759Z,6.50
2017-07-05T23:33:28.204Z,6.43
2017-07-05T23:35:56.640Z,6.80
2017-07-05T23:38:25.194Z,7.00
2017-07-05T23:40:53.611Z,6.50
2017-07-05T23:43:22.091Z,6.47
2017-07-05T23:45:50.546Z,6.43
2017-07-05T23:48:18.991Z,6.23
2017-07-05T23:50:47.615Z,9.50
2017-07-05T23:53:16.172Z,6.00
2017-07-05T23:55:44.595Z,5.83
2017-07-05T23:58:13.039Z,6.53
